createdAt,value
2022-12-03T00:01:25.955Z,42.58
2022-12-03T00:06:49.697Z,39.63
2022-12-03T00:12:14.665Z,39.10
2022-12-03T00:17:38.445Z,44.15
2022-12-03T00:23:02.012Z,43.15
2022-12-03T00:28:27.012Z,42.05
2022-12-03T00:33:50.741Z,50.35
2022-12-03T00:39:14.446Z,37.25
2022-12-03T00:44:39.529Z,48.03
2022-12-03T00:50:03.191Z,38.22
2022-12-03T00:55:26.866Z,38.97
2022-12-03T01:00:51.940Z,38.67
2022-12-03T01:06:15.597Z,47.90
2022-12-03T01:11:39.207Z,42.70
2022-12-03T01:17:04.204Z,42.25
2022-12-03T01:22:27.898Z,43.72
2022-12-03T01:27:51.632Z,40.38
2022-12-03T01:33:16.756Z,48.25
2022-12-03T01:38:40.444Z,48.05
2022-12-03T01:44:17.970Z,47.60
2022-12-03T01:49:45.313Z,41.08
2022-12-03T01:55:15.435Z,50.58
2022-12-03T02:00:39.219Z,47.53
2022-12-03T02:06:04.599Z,46.45
2022-12-03T02:11:32.400Z,47.17
2022-12-03T02:16:56.069Z,41.95
2022-12-03T02:22:35.258Z,50.15
2022-12-03T02:28:01.917Z,49.75
2022-12-03T02:33:25.677Z,50.50
2022-12-03T02:38:50.702Z,44.35
2022-12-03T02:44:15.944Z,46.58
2022-12-03T02:49:39.746Z,46.42
2022-12-03T02:55:05.173Z,51.85
2022-12-03T03:00:30.460Z,47.47
2022-12-03T03:05:56.734Z,53.58
2022-12-03T03:11:20.493Z,53.75
2022-12-03T03:16:45.599Z,53.28
2022-12-03T03:22:10.678Z,50.25
2022-12-03T03:27:35.034Z,51.90
2022-12-03T03:33:00.193Z,60.63
2022-12-03T03:38:25.054Z,42.45
2022-12-03T03:43:50.578Z,44.97
2022-12-03T03:49:16.447Z,44.92
2022-12-03T03:54:41.356Z,44.58
2022-12-03T04:00:06.884Z,40.50
2022-12-03T04:05:31.943Z,54.75
2022-12-03T04:11:13.015Z,45.72
2022-12-03T04:16:36.752Z,43.15
2022-12-03T04:22:19.324Z,43.28
2022-12-03T04:28:00.621Z,45.20
2022-12-03T04:33:41.914Z,49.40
2022-12-03T04:39:07.126Z,46.73
2022-12-03T04:44:39.729Z,43.15
2022-12-03T04:50:03.346Z,49.90
2022-12-03T04:55:28.384Z,49.35
2022-12-03T05:00:53.136Z,52.42
2022-12-03T05:06:16.878Z,55.63
2022-12-03T05:11:42.580Z,46.92
2022-12-03T05:17:06.317Z,48.30
2022-12-03T05:22:30.129Z,49.53
2022-12-03T05:27:55.175Z,40.30
2022-12-03T05:33:18.911Z,53.72
2022-12-03T05:38:42.654Z,53.30
2022-12-03T05:44:07.710Z,48.53
2022-12-03T05:49:33.749Z,52.75
2022-12-03T05:54:57.387Z,55.90
2022-12-03T06:00:24.383Z,54.83
2022-12-03T06:05:48.038Z,57.10
2022-12-03T06:11:11.656Z,52.40
2022-12-03T06:16:36.720Z,46.90
2022-12-03T06:22:00.414Z,43.85
2022-12-03T06:27:24.308Z,46.53
2022-12-03T06:32:49.593Z,48.95
2022-12-03T06:38:13.323Z,42.13
2022-12-03T06:43:36.974Z,45.13
2022-12-03T06:49:02.157Z,47.03
2022-12-03T06:54:25.882Z,41.13
2022-12-03T06:59:49.555Z,45.05
2022-12-03T07:05:14.628Z,45.83
2022-12-03T07:10:38.328Z,48.80
2022-12-03T07:16:02.043Z,39.03
2022-12-03T07:21:27.077Z,45.60
2022-12-03T07:26:53.309Z,42.47
2022-12-03T07:32:36.083Z,42.42
2022-12-03T07:38:01.742Z,45.58
2022-12-03T07:43:25.431Z,43.80
2022-12-03T07:48:49.127Z,43.47
2022-12-03T07:54:14.170Z,42.45
2022-12-03T07:59:37.898Z,47.03
2022-12-03T08:05:01.546Z,41.92
2022-12-03T08:10:27.300Z,49.45
2022-12-03T08:15:50.967Z,42.65
2022-12-03T08:21:16.326Z,40.67
2022-12-03T08:26:41.921Z,43.22
2022-12-03T08:32:08.058Z,43.30
2022-12-03T08:37:31.865Z,50.75
2022-12-03T08:42:56.893Z,37.42
2022-12-03T08:48:44.036Z,45.67
2022-12-03T08:54:15.909Z,47.95
2022-12-03T08:59:45.320Z,60.85
2022-12-03T09:05:16.865Z,46.58
2022-12-03T09:10:40.550Z,49.90
2022-12-03T09:16:05.963Z,46.40
2022-12-03T09:21:29.844Z,45.03
2022-12-03T09:26:54.005Z,48.47
2022-12-03T09:32:19.219Z,39.42
2022-12-03T09:37:42.925Z,40.63
2022-12-03T09:43:06.921Z,39.13
2022-12-03T09:48:32.257Z,42.10
2022-12-03T09:53:55.911Z,44.88
2022-12-03T09:59:19.925Z,43.17
2022-12-03T10:04:44.979Z,39.10
2022-12-03T10:10:15.609Z,41.15
2022-12-03T10:15:39.747Z,41.80
2022-12-03T10:21:04.962Z,36.83
2022-12-03T10:26:40.365Z,42.03
2022-12-03T10:32:06.841Z,38.50
2022-12-03T10:37:31.921Z,38.78
2022-12-03T10:43:15.550Z,36.92
2022-12-03T10:48:39.803Z,32.95
2022-12-03T10:54:05.205Z,35.45
2022-12-03T10:59:31.918Z,37.03
2022-12-03T11:04:56.445Z,35.10
2022-12-03T11:10:39.434Z,32.10
2022-12-03T11:16:04.173Z,33.60
2022-12-03T11:21:28.123Z,26.00
2022-12-03T11:27:21.219Z,26.13
2022-12-03T11:33:06.329Z,27.60
2022-12-03T11:38:53.651Z,23.05
2022-12-03T11:44:32.764Z,25.10
2022-12-03T11:49:56.788Z,25.70
2022-12-03T11:55:29.280Z,27.70
2022-12-03T12:00:55.693Z,26.83
2022-12-03T12:06:21.390Z,23.30
2022-12-03T12:11:48.048Z,26.77
2022-12-03T12:17:31.821Z,24.67
2022-12-03T12:22:56.442Z,26.58
2022-12-03T12:28:20.396Z,25.52
2022-12-03T12:33:46.613Z,24.60
2022-12-03T12:39:13.184Z,24.20
2022-12-03T12:44:37.105Z,26.23
2022-12-03T12:50:02.982Z,22.35
2022-12-03T12:55:26.724Z,29.00
2022-12-03T13:00:54.004Z,20.67
2022-12-03T13:06:27.542Z,24.13
2022-12-03T13:11:54.603Z,24.92
2022-12-03T13:17:24.428Z,23.83
2022-12-03T13:22:49.922Z,23.77
2022-12-03T13:28:16.166Z,29.80
2022-12-03T13:33:40.214Z,25.20
2022-12-03T13:39:13.568Z,29.45
2022-12-03T13:44:42.842Z,24.33
2022-12-03T13:50:21.910Z,34.22
2022-12-03T13:55:49.166Z,27.65
2022-12-03T14:01:12.954Z,30.00
2022-12-03T14:06:36.773Z,31.35
2022-12-03T14:12:19.020Z,26.45
2022-12-03T14:17:42.790Z,26.00
2022-12-03T14:23:06.467Z,30.30
2022-12-03T14:28:31.694Z,25.58
2022-12-03T14:33:55.445Z,23.40
2022-12-03T14:39:19.156Z,57.17
2022-12-03T14:44:45.784Z,28.70
2022-12-03T14:50:14.165Z,52.20
2022-12-03T14:55:38.002Z,38.83
2022-12-03T15:01:03.195Z,23.50
2022-12-03T15:06:27.062Z,32.83
2022-12-03T15:11:50.750Z,35.50
2022-12-03T15:17:16.129Z,27.88
2022-12-03T15:22:39.861Z,29.83
2022-12-03T15:28:05.309Z,25.45
2022-12-03T15:33:30.578Z,31.30
2022-12-03T15:38:54.248Z,37.80
2022-12-03T15:44:17.991Z,27.23
2022-12-03T15:49:43.152Z,31.67
2022-12-03T15:55:07.565Z,31.17
2022-12-03T16:00:31.254Z,32.13
2022-12-03T16:05:57.205Z,36.17
2022-12-03T16:11:20.844Z,28.48
2022-12-03T16:16:44.516Z,32.13
2022-12-03T16:22:09.771Z,25.88
2022-12-03T16:27:33.574Z,32.20
2022-12-03T16:32:58.205Z,28.10
2022-12-03T16:38:23.179Z,26.10
2022-12-03T16:43:48.570Z,27.10
2022-12-03T16:49:12.290Z,29.30
2022-12-03T16:54:37.340Z,37.92
2022-12-03T17:00:01.233Z,28.52
2022-12-03T17:05:24.985Z,30.80
2022-12-03T17:10:50.150Z,31.73
2022-12-03T17:16:13.924Z,32.65
2022-12-03T17:21:37.753Z,31.55
2022-12-03T17:27:02.798Z,31.10
2022-12-03T17:32:26.515Z,32.67
2022-12-03T17:37:50.253Z,34.55
2022-12-03T17:43:15.630Z,31.55
2022-12-03T17:48:40.582Z,39.95
2022-12-03T17:54:04.274Z,38.80
2022-12-03T17:59:29.340Z,32.60
2022-12-03T18:04:52.971Z,37.45
2022-12-03T18:10:17.150Z,41.42
2022-12-03T18:15:42.279Z,44.50
2022-12-03T18:21:06.289Z,43.75
2022-12-03T18:26:30.159Z,36.75
2022-12-03T18:31:55.235Z,40.38
2022-12-03T18:37:19.076Z,43.45
2022-12-03T18:42:42.734Z,39.75
2022-12-03T18:48:13.245Z,38.03
2022-12-03T18:53:36.933Z,37.13
2022-12-03T18:59:00.695Z,57.13
2022-12-03T19:04:25.911Z,52.72
2022-12-03T19:09:49.683Z,48.42
2022-12-03T19:15:13.420Z,38.90
2022-12-03T19:20:41.317Z,41.58
2022-12-03T19:26:07.420Z,42.42
2022-12-03T19:31:33.478Z,56.88
2022-12-03T19:36:58.727Z,58.90
2022-12-03T19:42:22.689Z,68.78
2022-12-03T19:47:46.429Z,48.00
2022-12-03T19:53:11.503Z,45.08
2022-12-03T19:58:35.722Z,47.35
2022-12-03T20:04:01.633Z,38.13
2022-12-03T20:09:26.776Z,43.40
2022-12-03T20:14:51.725Z,45.85
2022-12-03T20:20:15.505Z,49.25
2022-12-03T20:25:40.581Z,44.95
2022-12-03T20:31:09.533Z,40.65
2022-12-03T20:36:33.991Z,46.40
2022-12-03T20:41:59.218Z,43.03
2022-12-03T20:47:22.966Z,47.00
2022-12-03T20:53:09.363Z,48.47
2022-12-03T20:58:32.361Z,48.33
2022-12-03T21:03:57.865Z,44.60
2022-12-03T21:09:21.530Z,48.80
2022-12-03T21:14:46.760Z,42.30
2022-12-03T21:20:10.921Z,44.15
2022-12-03T21:25:35.489Z,47.15
2022-12-03T21:31:03.456Z,49.40
2022-12-03T21:36:27.289Z,43.67
2022-12-03T21:42:34.512Z,41.10
2022-12-03T21:47:37.433Z,45.30
2022-12-03T21:53:01.474Z,47.35
2022-12-03T21:58:25.213Z,53.00
2022-12-03T22:03:50.689Z,43.92
2022-12-03T22:09:14.332Z,43.13
2022-12-03T22:14:38.177Z,40.78
2022-12-03T22:20:03.715Z,47.10
2022-12-03T22:25:27.348Z,42.95
2022-12-03T22:30:51.006Z,36.97
2022-12-03T22:36:21.021Z,41.45
2022-12-03T22:41:45.753Z,42.88
2022-12-03T22:47:09.630Z,48.97
2022-12-03T22:52:34.851Z,41.13
2022-12-03T22:57:58.488Z,41.47
2022-12-03T23:03:22.774Z,48.03
2022-12-03T23:08:48.263Z,42.67
2022-12-03T23:14:11.948Z,39.20
2022-12-03T23:19:35.618Z,45.55
2022-12-03T23:25:00.665Z,49.78
2022-12-03T23:30:24.278Z,46.33
2022-12-03T23:35:47.958Z,47.35
2022-12-03T23:41:15.061Z,46.53
2022-12-03T23:46:40.820Z,44.60
2022-12-03T23:52:04.740Z,45.33
2022-12-03T23:57:29.771Z,45.42
